createdAt,value
2019-05-25T00:00:53.850Z,15.80
2019-05-25T00:02:07.661Z,15.80
2019-05-25T00:03:20.969Z,15.80
2019-05-25T00:04:34.791Z,15.70
2019-05-25T00:05:48.034Z,15.70
2019-05-25T00:07:01.840Z,15.70
2019-05-25T00:08:15.310Z,15.70
2019-05-25T00:09:29.390Z,15.70
2019-05-25T00:10:43.809Z,15.70
2019-05-25T00:11:58.209Z,15.60
2019-05-25T00:13:11.519Z,15.50
2019-05-25T00:14:25.125Z,15.40
2019-05-25T00:15:38.380Z,15.40
2019-05-25T00:16:52.978Z,15.40
2019-05-25T00:18:06.206Z,15.30
2019-05-25T00:19:22.369Z,15.30
2019-05-25T00:20:35.663Z,15.20
2019-05-25T00:21:49.599Z,15.30
2019-05-25T00:23:02.830Z,15.20
2019-05-25T00:24:16.635Z,15.20
2019-05-25T00:25:29.867Z,15.30
2019-05-25T00:26:43.682Z,15.30
2019-05-25T00:27:56.986Z,15.10
2019-05-25T00:29:11.043Z,15.00
2019-05-25T00:30:24.279Z,14.90
2019-05-25T00:31:38.160Z,14.90
2019-05-25T00:32:51.398Z,14.80
2019-05-25T00:34:05.207Z,14.80
2019-05-25T00:35:19.790Z,14.80
2019-05-25T00:36:33.613Z,14.80
2019-05-25T00:37:47.154Z,14.80
2019-05-25T00:39:00.981Z,14.90
2019-05-25T00:40:14.213Z,14.90
2019-05-25T00:41:28.026Z,14.90
2019-05-25T00:42:41.503Z,14.90
2019-05-25T00:43:55.315Z,14.90
2019-05-25T00:45:08.556Z,14.80
2019-05-25T00:46:22.441Z,14.80
2019-05-25T00:47:35.681Z,14.60
2019-05-25T00:48:49.501Z,14.50
2019-05-25T00:50:03.015Z,14.60
2019-05-25T00:51:16.833Z,14.50
2019-05-25T00:52:30.771Z,14.50
2019-05-25T00:53:44.582Z,14.50
2019-05-25T00:54:57.810Z,14.50
2019-05-25T00:56:11.630Z,14.60
2019-05-25T00:57:24.859Z,14.50
2019-05-25T00:58:38.689Z,14.50
2019-05-25T00:59:52.642Z,14.50
2019-05-25T01:01:06.616Z,14.60
2019-05-25T01:02:19.927Z,14.60
2019-05-25T01:03:33.729Z,14.70
2019-05-25T01:04:46.974Z,14.60
2019-05-25T01:06:01.259Z,14.60
2019-05-25T01:07:14.486Z,14.60
2019-05-25T01:08:28.383Z,14.50
2019-05-25T01:09:42.861Z,14.50
2019-05-25T01:10:56.695Z,14.50
2019-05-25T01:12:09.920Z,14.50
2019-05-25T01:13:24.765Z,14.50
2019-05-25T01:14:37.990Z,14.50
2019-05-25T01:15:51.809Z,14.40
2019-05-25T01:17:05.044Z,14.40
2019-05-25T01:18:18.893Z,14.50
2019-05-25T01:19:32.442Z,14.40
2019-05-25T01:20:46.262Z,14.50
2019-05-25T01:21:59.570Z,14.40
2019-05-25T01:23:13.390Z,14.40
2019-05-25T01:24:26.619Z,14.50
2019-05-25T01:25:40.434Z,14.50
2019-05-25T01:26:53.681Z,14.50
2019-05-25T01:28:07.551Z,14.50
2019-05-25T01:29:20.785Z,14.50
2019-05-25T01:30:34.598Z,14.40
2019-05-25T01:31:47.833Z,14.20
2019-05-25T01:33:01.651Z,14.10
2019-05-25T01:34:14.878Z,14.10
2019-05-25T01:35:28.782Z,14.00
2019-05-25T01:36:42.015Z,13.90
2019-05-25T01:37:55.826Z,13.90
2019-05-25T01:39:09.311Z,13.80
2019-05-25T01:40:23.135Z,13.70
2019-05-25T01:41:36.367Z,13.80
2019-05-25T01:42:50.181Z,13.80
2019-05-25T01:44:03.417Z,13.80
2019-05-25T01:45:17.234Z,13.70
2019-05-25T01:46:30.476Z,13.70
2019-05-25T01:47:44.542Z,13.70
2019-05-25T01:48:57.767Z,13.70
2019-05-25T01:50:12.047Z,13.60
2019-05-25T01:51:26.254Z,13.60
2019-05-25T01:52:40.068Z,13.60
2019-05-25T01:53:53.294Z,13.70
2019-05-25T01:55:07.383Z,13.60
2019-05-25T01:56:21.374Z,13.60
2019-05-25T01:57:35.208Z,13.60
2019-05-25T01:58:48.441Z,13.70
2019-05-25T02:00:03.225Z,13.60
2019-05-25T02:01:16.468Z,13.70
2019-05-25T02:02:30.279Z,13.70
2019-05-25T02:03:43.535Z,13.70
2019-05-25T02:04:57.351Z,13.70
2019-05-25T02:06:10.579Z,13.80
2019-05-25T02:07:24.537Z,13.80
2019-05-25T02:08:37.772Z,13.80
2019-05-25T02:09:51.676Z,13.60
2019-05-25T02:11:04.910Z,13.80
2019-05-25T02:12:18.721Z,13.60
2019-05-25T02:13:31.955Z,13.60
2019-05-25T02:14:46.015Z,13.60
2019-05-25T02:15:59.256Z,13.70
2019-05-25T02:17:13.565Z,13.70
2019-05-25T02:18:26.831Z,13.60
2019-05-25T02:19:40.655Z,13.70
2019-05-25T02:20:53.879Z,13.70
2019-05-25T02:22:08.743Z,13.70
2019-05-25T02:23:21.969Z,13.60
2019-05-25T02:24:37.367Z,13.60
2019-05-25T02:25:50.601Z,13.50
2019-05-25T02:27:04.761Z,13.60
2019-05-25T02:28:18.262Z,13.60
2019-05-25T02:29:32.186Z,13.60
2019-05-25T02:30:45.452Z,13.60
2019-05-25T02:31:59.257Z,13.70
2019-05-25T02:33:12.492Z,13.60
2019-05-25T02:34:26.323Z,13.50
2019-05-25T02:35:39.558Z,13.50
2019-05-25T02:36:53.396Z,13.40
2019-05-25T02:38:06.635Z,13.30
2019-05-25T02:39:20.451Z,13.10
2019-05-25T02:40:33.683Z,13.10
2019-05-25T02:41:47.505Z,13.20
2019-05-25T02:43:00.746Z,13.20
2019-05-25T02:44:14.638Z,13.20
2019-05-25T02:45:27.882Z,13.10
2019-05-25T02:46:41.691Z,13.10
2019-05-25T02:47:55.172Z,13.00
2019-05-25T02:49:09.011Z,13.00
2019-05-25T02:50:22.237Z,13.00
2019-05-25T02:51:36.055Z,13.00
2019-05-25T02:52:49.287Z,13.00
2019-05-25T02:54:15.386Z,13.00
2019-05-25T02:55:34.157Z,12.90
2019-05-25T02:56:44.572Z,12.90
2019-05-25T02:57:57.798Z,12.90
2019-05-25T02:59:11.608Z,12.90
2019-05-25T03:00:33.124Z,12.90
2019-05-25T03:01:47.383Z,13.00
2019-05-25T03:03:00.787Z,13.10
2019-05-25T03:04:14.589Z,12.90
2019-05-25T03:05:27.827Z,13.00
2019-05-25T03:06:42.241Z,13.10
2019-05-25T03:07:56.347Z,13.00
2019-05-25T03:09:10.627Z,13.10
2019-05-25T03:10:23.850Z,13.10
2019-05-25T03:11:37.931Z,13.10
2019-05-25T03:12:51.376Z,13.10
2019-05-25T03:14:05.258Z,13.10
2019-05-25T03:15:18.490Z,13.10
2019-05-25T03:16:32.327Z,13.10
2019-05-25T03:17:45.560Z,13.10
2019-05-25T03:18:59.382Z,13.10
2019-05-25T03:20:13.082Z,13.10
2019-05-25T03:21:27.138Z,13.10
2019-05-25T03:22:40.389Z,13.10
2019-05-25T03:23:54.198Z,13.10
2019-05-25T03:25:07.505Z,13.10
2019-05-25T03:26:21.324Z,13.00
2019-05-25T03:27:34.559Z,13.10
2019-05-25T03:28:48.566Z,13.10
2019-05-25T03:30:01.923Z,13.10
2019-05-25T03:31:15.826Z,13.00
2019-05-25T03:32:29.699Z,13.00
2019-05-25T03:33:43.522Z,12.90
2019-05-25T03:34:57.318Z,12.80
2019-05-25T03:36:11.139Z,12.80
2019-05-25T03:37:24.672Z,12.70
2019-05-25T03:38:38.523Z,12.80
2019-05-25T03:39:52.218Z,12.80
2019-05-25T03:41:06.041Z,12.70
2019-05-25T03:42:19.535Z,12.70
2019-05-25T03:43:33.358Z,12.80
2019-05-25T03:44:46.582Z,12.80
2019-05-25T03:46:00.394Z,12.90
2019-05-25T03:47:13.625Z,12.80
2019-05-25T03:48:27.472Z,12.90
2019-05-25T03:49:40.824Z,12.80
2019-05-25T03:50:54.744Z,12.70
2019-05-25T03:52:08.014Z,12.70
2019-05-25T03:53:22.031Z,12.60
2019-05-25T03:54:35.262Z,12.60
2019-05-25T03:56:02.947Z,12.60
2019-05-25T03:57:04.045Z,12.50
2019-05-25T03:58:17.847Z,12.50
2019-05-25T03:59:31.084Z,12.50
2019-05-25T04:00:44.893Z,12.40
2019-05-25T04:01:58.338Z,12.50
2019-05-25T04:03:12.159Z,12.40
2019-05-25T04:04:25.461Z,12.40
2019-05-25T04:05:39.301Z,12.50
2019-05-25T04:06:52.743Z,12.50
2019-05-25T04:08:06.548Z,12.50
2019-05-25T04:09:19.775Z,12.50
2019-05-25T04:10:33.586Z,12.60
2019-05-25T04:11:47.063Z,12.60
2019-05-25T04:13:00.874Z,12.60
2019-05-25T04:14:14.347Z,12.60
2019-05-25T04:15:28.158Z,12.60
2019-05-25T04:16:41.671Z,12.50
2019-05-25T04:17:55.486Z,12.40
2019-05-25T04:19:08.791Z,12.40
2019-05-25T04:20:22.351Z,12.30
2019-05-25T04:21:37.206Z,12.30
2019-05-25T04:22:51.042Z,12.40
2019-05-25T04:24:05.022Z,12.30
2019-05-25T04:25:18.845Z,12.30
2019-05-25T04:26:32.143Z,12.30
2019-05-25T04:27:45.962Z,12.30
2019-05-25T04:28:59.206Z,12.40
2019-05-25T04:30:13.131Z,12.40
2019-05-25T04:31:26.362Z,12.40
2019-05-25T04:32:40.181Z,12.40
2019-05-25T04:33:53.614Z,12.40
2019-05-25T04:35:07.425Z,12.40
2019-05-25T04:36:20.655Z,12.40
2019-05-25T04:37:34.474Z,12.40
2019-05-25T04:38:47.739Z,12.40
2019-05-25T04:40:01.611Z,12.40
2019-05-25T04:41:15.822Z,12.50
2019-05-25T04:42:29.840Z,12.50
2019-05-25T04:43:43.101Z,12.50
2019-05-25T04:44:58.520Z,12.60
2019-05-25T04:46:11.744Z,12.60
2019-05-25T04:47:27.161Z,12.60
2019-05-25T04:48:40.719Z,12.60
2019-05-25T04:49:54.535Z,12.70
2019-05-25T04:51:08.488Z,12.70
2019-05-25T04:52:22.310Z,12.70
2019-05-25T04:53:35.538Z,12.80
2019-05-25T04:54:50.059Z,12.80
2019-05-25T04:56:03.280Z,12.80
2019-05-25T04:57:17.660Z,12.90
2019-05-25T04:58:30.889Z,12.90
2019-05-25T04:59:44.908Z,13.00
2019-05-25T05:00:58.146Z,13.00
2019-05-25T05:02:12.415Z,13.00
2019-05-25T05:03:25.650Z,13.10
2019-05-25T05:04:39.922Z,13.10
2019-05-25T05:05:53.158Z,13.10
2019-05-25T05:07:08.607Z,13.20
2019-05-25T05:08:21.842Z,13.20
2019-05-25T05:09:35.658Z,13.30
2019-05-25T05:10:48.875Z,13.30
2019-05-25T05:12:03.622Z,13.30
2019-05-25T05:13:17.104Z,13.40
2019-05-25T05:14:30.942Z,13.50
2019-05-25T05:15:44.250Z,13.50
2019-05-25T05:16:58.063Z,13.60
2019-05-25T05:18:11.537Z,13.50
2019-05-25T05:19:25.413Z,13.60
2019-05-25T05:20:38.718Z,13.60
2019-05-25T05:21:52.587Z,13.70
2019-05-25T05:23:06.300Z,13.70
2019-05-25T05:24:21.234Z,13.70
2019-05-25T05:25:34.465Z,13.80
2019-05-25T05:26:55.606Z,13.80
2019-05-25T05:28:03.692Z,13.90
2019-05-25T05:29:17.511Z,14.00
2019-05-25T05:30:34.150Z,14.00
2019-05-25T05:31:47.964Z,14.00
2019-05-25T05:33:02.506Z,14.10
2019-05-25T05:34:16.317Z,14.10
2019-05-25T05:35:29.932Z,14.10
2019-05-25T05:36:43.742Z,14.10
2019-05-25T05:37:57.456Z,14.10
2019-05-25T05:39:11.263Z,14.20
2019-05-25T05:40:24.496Z,14.20
2019-05-25T05:41:38.987Z,14.30
2019-05-25T05:42:52.239Z,14.30
2019-05-25T05:44:06.068Z,14.40
2019-05-25T05:45:19.764Z,14.30
2019-05-25T05:46:33.745Z,14.40
2019-05-25T05:47:47.551Z,14.40
2019-05-25T05:49:01.866Z,14.50
2019-05-25T05:50:15.091Z,14.50
2019-05-25T05:51:28.902Z,14.50
2019-05-25T05:52:42.858Z,14.60
2019-05-25T05:53:58.528Z,14.60
2019-05-25T05:55:11.898Z,14.70
2019-05-25T05:56:25.708Z,14.80
2019-05-25T05:57:39.492Z,14.80
2019-05-25T05:58:53.079Z,14.80
2019-05-25T06:00:09.990Z,14.80
2019-05-25T06:01:23.817Z,14.90
2019-05-25T06:02:37.052Z,15.00
2019-05-25T06:03:50.861Z,15.00
2019-05-25T06:05:04.731Z,15.00
2019-05-25T06:06:18.751Z,15.10
2019-05-25T06:07:32.003Z,15.10
2019-05-25T06:08:45.810Z,15.20
2019-05-25T06:09:59.055Z,15.20
2019-05-25T06:11:12.867Z,15.20
2019-05-25T06:12:26.102Z,15.20
2019-05-25T06:13:40.142Z,15.20
2019-05-25T06:14:53.394Z,15.40
2019-05-25T06:16:07.479Z,15.40
2019-05-25T06:17:20.702Z,15.40
2019-05-25T06:18:34.714Z,15.50
2019-05-25T06:19:47.941Z,15.60
2019-05-25T06:21:03.382Z,15.60
2019-05-25T06:22:16.606Z,15.70
2019-05-25T06:23:30.428Z,15.60
2019-05-25T06:24:43.913Z,15.70
2019-05-25T06:25:57.743Z,15.70
2019-05-25T06:27:26.059Z,15.80
2019-05-25T06:28:26.517Z,15.80
2019-05-25T06:29:41.370Z,15.90
2019-05-25T06:30:55.207Z,15.90
2019-05-25T06:32:08.911Z,16.00
2019-05-25T06:33:23.511Z,16.00
2019-05-25T06:34:37.206Z,16.10
2019-05-25T06:35:51.021Z,16.20
2019-05-25T06:37:04.258Z,16.20
2019-05-25T06:38:18.078Z,16.20
2019-05-25T06:39:31.352Z,16.30
2019-05-25T06:40:45.219Z,16.30
2019-05-25T06:41:58.923Z,16.30
2019-05-25T06:43:14.946Z,16.40
2019-05-25T06:44:28.166Z,16.40
2019-05-25T06:45:41.979Z,16.50
2019-05-25T06:46:55.674Z,16.50
2019-05-25T06:48:09.976Z,16.60
2019-05-25T06:49:23.464Z,16.60
2019-05-25T06:50:37.279Z,16.60
2019-05-25T06:51:50.512Z,16.70
2019-05-25T06:53:04.347Z,16.80
2019-05-25T06:54:17.642Z,16.90
2019-05-25T06:55:31.695Z,16.90
2019-05-25T06:56:44.928Z,17.00
2019-05-25T06:57:58.743Z,16.90
2019-05-25T06:59:11.987Z,16.90
2019-05-25T07:00:25.801Z,17.00
2019-05-25T07:01:40.394Z,17.10
2019-05-25T07:02:54.774Z,17.20
2019-05-25T07:04:08.007Z,17.30
2019-05-25T07:05:21.837Z,17.30
2019-05-25T07:06:35.072Z,17.40
2019-05-25T07:07:48.889Z,17.50
2019-05-25T07:09:02.123Z,17.60
2019-05-25T07:10:16.143Z,17.60
2019-05-25T07:11:29.387Z,17.60
2019-05-25T07:12:43.200Z,17.60
2019-05-25T07:13:56.710Z,17.70
2019-05-25T07:15:11.199Z,17.70
2019-05-25T07:16:24.417Z,17.70
2019-05-25T07:17:38.232Z,17.70
2019-05-25T07:18:51.475Z,17.80
2019-05-25T07:20:08.674Z,17.80
2019-05-25T07:21:23.752Z,17.90
2019-05-25T07:22:38.513Z,17.80
2019-05-25T07:23:51.790Z,17.80
2019-05-25T07:25:07.230Z,17.90
2019-05-25T07:26:20.554Z,17.90
2019-05-25T07:27:34.438Z,17.90
2019-05-25T07:28:47.678Z,18.00
2019-05-25T07:30:02.168Z,18.00
2019-05-25T07:31:15.391Z,18.10
2019-05-25T07:32:29.210Z,18.10
2019-05-25T07:33:42.603Z,18.10
2019-05-25T07:34:56.429Z,18.10
2019-05-25T07:36:09.715Z,18.00
2019-05-25T07:37:23.648Z,18.10
2019-05-25T07:38:38.509Z,18.20
2019-05-25T07:39:52.380Z,18.20
2019-05-25T07:41:05.864Z,18.30
2019-05-25T07:42:20.201Z,18.20
2019-05-25T07:43:33.497Z,18.20
2019-05-25T07:44:48.205Z,18.20
2019-05-25T07:46:01.471Z,18.20
2019-05-25T07:47:15.124Z,18.30
2019-05-25T07:48:29.903Z,18.30
2019-05-25T07:49:43.720Z,18.40
2019-05-25T07:50:56.954Z,18.40
2019-05-25T07:52:11.312Z,18.50
2019-05-25T07:53:24.537Z,18.50
2019-05-25T07:54:38.474Z,18.50
2019-05-25T07:55:51.773Z,18.60
2019-05-25T07:57:05.578Z,18.50
2019-05-25T07:58:18.825Z,18.60
2019-05-25T07:59:32.778Z,18.70
2019-05-25T08:00:46.234Z,18.70
2019-05-25T08:02:00.052Z,18.80
2019-05-25T08:03:13.285Z,18.80
2019-05-25T08:04:27.125Z,18.90
2019-05-25T08:05:40.826Z,19.00
2019-05-25T08:06:54.715Z,19.20
2019-05-25T08:08:07.979Z,19.30
2019-05-25T08:09:21.570Z,19.50
2019-05-25T08:10:34.799Z,19.50
2019-05-25T08:11:48.636Z,19.60
2019-05-25T08:13:01.879Z,19.70
2019-05-25T08:14:15.710Z,19.60
2019-05-25T08:15:28.944Z,19.80
2019-05-25T08:16:43.229Z,20.00
2019-05-25T08:17:56.453Z,20.10
2019-05-25T08:19:10.384Z,20.10
2019-05-25T08:20:23.590Z,20.30
2019-05-25T08:21:37.470Z,20.50
2019-05-25T08:22:50.727Z,20.50
2019-05-25T08:24:04.527Z,20.50
2019-05-25T08:25:17.977Z,20.50
2019-05-25T08:26:31.975Z,20.50
2019-05-25T08:27:45.203Z,20.50
2019-05-25T08:28:59.231Z,20.50
2019-05-25T08:30:14.099Z,20.50
2019-05-25T08:31:27.931Z,20.50
2019-05-25T08:32:53.821Z,20.60
2019-05-25T08:34:13.195Z,20.80
2019-05-25T08:35:26.941Z,20.90
2019-05-25T08:36:40.767Z,21.10
2019-05-25T08:37:54.907Z,21.20
2019-05-25T08:39:08.738Z,21.20
2019-05-25T08:40:21.975Z,21.30
2019-05-25T08:41:35.784Z,21.30
2019-05-25T08:42:51.776Z,21.10
2019-05-25T08:44:05.684Z,21.00
2019-05-25T08:45:19.122Z,21.10
2019-05-25T08:46:33.140Z,21.10
2019-05-25T08:47:46.379Z,21.00
2019-05-25T08:49:00.612Z,21.00
2019-05-25T08:50:15.698Z,21.00
2019-05-25T08:51:29.586Z,21.20
2019-05-25T08:52:45.190Z,21.20
2019-05-25T08:54:00.546Z,21.40
2019-05-25T08:55:13.791Z,21.40
2019-05-25T08:56:27.634Z,21.50
2019-05-25T08:57:41.293Z,21.30
2019-05-25T08:58:55.737Z,21.40
2019-05-25T09:00:09.062Z,21.30
2019-05-25T09:01:22.882Z,21.40
2019-05-25T09:02:37.954Z,21.40
2019-05-25T09:03:52.276Z,21.70
2019-05-25T09:05:08.543Z,21.80
2019-05-25T09:06:23.390Z,21.90
2019-05-25T09:07:36.652Z,22.10
2019-05-25T09:08:52.222Z,22.10
2019-05-25T09:10:06.494Z,22.10
2019-05-25T09:11:20.305Z,22.30
2019-05-25T09:12:33.537Z,22.30
2019-05-25T09:13:47.506Z,22.40
2019-05-25T09:15:01.131Z,22.60
2019-05-25T09:16:16.165Z,22.70
2019-05-25T09:17:29.616Z,22.60
2019-05-25T09:18:43.431Z,22.40
2019-05-25T09:19:56.810Z,22.50
2019-05-25T09:21:10.872Z,22.50
2019-05-25T09:22:24.171Z,22.50
2019-05-25T09:23:37.988Z,22.40
2019-05-25T09:24:51.235Z,22.60
2019-05-25T09:26:05.131Z,22.70
2019-05-25T09:27:18.402Z,22.70
2019-05-25T09:28:32.214Z,22.70
2019-05-25T09:29:45.448Z,22.80
2019-05-25T09:30:59.276Z,23.00
2019-05-25T09:32:12.798Z,23.10
2019-05-25T09:33:28.394Z,23.10
2019-05-25T09:34:41.645Z,23.10
2019-05-25T09:35:55.575Z,23.10
2019-05-25T09:37:08.818Z,23.20
2019-05-25T09:38:22.634Z,23.20
2019-05-25T09:39:35.875Z,23.20
2019-05-25T09:40:49.687Z,23.10
2019-05-25T09:42:03.119Z,23.30
2019-05-25T09:43:16.935Z,23.30
2019-05-25T09:44:32.109Z,23.40
2019-05-25T09:45:49.027Z,23.30
2019-05-25T09:47:02.299Z,23.30
2019-05-25T09:48:16.186Z,23.10
2019-05-25T09:49:29.941Z,23.10
2019-05-25T09:50:44.996Z,23.10
2019-05-25T09:51:58.226Z,23.00
2019-05-25T09:53:13.158Z,23.10
2019-05-25T09:54:31.394Z,23.10
2019-05-25T09:55:45.311Z,23.00
2019-05-25T09:56:58.531Z,23.10
2019-05-25T09:58:12.342Z,23.20
2019-05-25T09:59:25.575Z,23.30
2019-05-25T10:00:40.285Z,23.10
2019-05-25T10:01:53.829Z,23.20
2019-05-25T10:03:07.734Z,23.20
2019-05-25T10:04:23.973Z,23.20
2019-05-25T10:05:40.695Z,23.20
2019-05-25T10:06:53.941Z,23.20
2019-05-25T10:08:07.738Z,23.20
2019-05-25T10:09:20.994Z,23.20
2019-05-25T10:10:34.816Z,23.30
2019-05-25T10:11:49.677Z,23.30
2019-05-25T10:13:05.607Z,23.30
2019-05-25T10:14:24.874Z,23.20
2019-05-25T10:15:38.774Z,23.40
2019-05-25T10:16:54.649Z,23.40
2019-05-25T10:18:07.892Z,23.50
2019-05-25T10:19:23.331Z,23.50
2019-05-25T10:20:37.384Z,23.50
2019-05-25T10:21:50.630Z,23.40
2019-05-25T10:23:04.460Z,23.50
2019-05-25T10:24:17.706Z,23.50
2019-05-25T10:25:31.503Z,23.40
2019-05-25T10:26:44.942Z,23.60
2019-05-25T10:27:58.776Z,23.60
2019-05-25T10:29:12.648Z,23.50
2019-05-25T10:30:26.478Z,23.50
2019-05-25T10:31:39.702Z,23.50
2019-05-25T10:32:53.519Z,23.70
2019-05-25T10:34:06.744Z,23.70
2019-05-25T10:35:20.578Z,23.70
2019-05-25T10:36:33.924Z,23.70
2019-05-25T10:37:48.762Z,23.70
2019-05-25T10:39:05.498Z,23.70
2019-05-25T10:40:19.310Z,23.70
2019-05-25T10:41:32.555Z,23.80
2019-05-25T10:42:46.366Z,23.70
2019-05-25T10:43:59.604Z,23.70
2019-05-25T10:45:13.492Z,23.90
2019-05-25T10:46:26.730Z,23.70
2019-05-25T10:47:41.644Z,23.80
2019-05-25T10:48:54.880Z,24.00
2019-05-25T10:50:11.359Z,24.00
2019-05-25T10:51:24.584Z,24.10
2019-05-25T10:52:38.409Z,24.10
2019-05-25T10:53:51.663Z,24.10
2019-05-25T10:55:08.566Z,24.00
2019-05-25T10:56:21.787Z,23.80
2019-05-25T10:57:36.187Z,23.70
2019-05-25T10:58:49.727Z,23.60
2019-05-25T11:00:05.652Z,23.70
2019-05-25T11:01:18.896Z,23.80
2019-05-25T11:02:33.972Z,23.60
2019-05-25T11:03:47.319Z,23.50
2019-05-25T11:05:01.161Z,23.50
2019-05-25T11:06:14.416Z,23.60
2019-05-25T11:07:28.237Z,23.70
2019-05-25T11:08:42.517Z,23.90
2019-05-25T11:09:56.388Z,24.00
2019-05-25T11:11:09.783Z,24.30
2019-05-25T11:12:26.138Z,24.60
2019-05-25T11:13:39.103Z,24.70
2019-05-25T11:14:54.538Z,24.40
2019-05-25T11:16:11.159Z,24.40
2019-05-25T11:17:25.092Z,24.60
2019-05-25T11:18:38.317Z,24.90
2019-05-25T11:19:52.294Z,25.10
2019-05-25T11:21:05.541Z,25.20
2019-05-25T11:22:19.606Z,25.30
2019-05-25T11:23:34.237Z,25.00
2019-05-25T11:24:50.098Z,25.30
2019-05-25T11:26:07.334Z,25.60
2019-05-25T11:27:35.441Z,25.60
2019-05-25T11:28:53.440Z,25.70
2019-05-25T11:30:10.033Z,26.00
2019-05-25T11:31:42.585Z,26.10
2019-05-25T11:32:40.879Z,26.60
2019-05-25T11:33:59.883Z,27.00
2019-05-25T11:35:13.728Z,26.90
2019-05-25T11:36:26.958Z,26.70
2019-05-25T11:37:40.867Z,26.80
2019-05-25T11:38:54.095Z,27.00
2019-05-25T11:40:08.171Z,27.00
2019-05-25T11:41:21.398Z,27.30
2019-05-25T11:42:35.687Z,27.50
2019-05-25T11:43:49.950Z,27.20
2019-05-25T11:45:07.256Z,26.90
2019-05-25T11:46:20.486Z,27.10
2019-05-25T11:47:34.295Z,26.80
2019-05-25T11:48:47.526Z,26.80
2019-05-25T11:50:01.336Z,26.90
2019-05-25T11:51:14.575Z,27.10
2019-05-25T11:52:29.457Z,27.40
2019-05-25T11:53:44.340Z,27.50
2019-05-25T11:54:58.148Z,27.70
2019-05-25T11:56:11.450Z,27.80
2019-05-25T11:57:25.264Z,27.70
2019-05-25T11:58:47.117Z,27.40
2019-05-25T11:59:54.047Z,27.10
2019-05-25T12:01:07.269Z,26.80
2019-05-25T12:02:22.364Z,26.60
2019-05-25T12:03:35.599Z,26.30
2019-05-25T12:04:49.404Z,26.10
2019-05-25T12:06:02.646Z,25.90
2019-05-25T12:07:16.929Z,25.80
2019-05-25T12:08:30.158Z,26.00
2019-05-25T12:09:44.005Z,26.00
2019-05-25T12:10:57.316Z,26.30
2019-05-25T12:12:12.771Z,26.70
2019-05-25T12:13:26.004Z,26.60
2019-05-25T12:14:40.274Z,26.70
2019-05-25T12:15:53.507Z,26.70
2019-05-25T12:17:08.983Z,27.00
2019-05-25T12:18:22.274Z,27.20
2019-05-25T12:19:36.091Z,27.10
2019-05-25T12:20:49.318Z,27.40
2019-05-25T12:22:03.703Z,27.50
2019-05-25T12:23:16.935Z,27.70
2019-05-25T12:24:30.800Z,27.60
2019-05-25T12:25:44.087Z,27.90
2019-05-25T12:26:59.282Z,28.20
2019-05-25T12:28:12.510Z,28.60
2019-05-25T12:29:26.340Z,28.90
2019-05-25T12:30:41.136Z,28.90
2019-05-25T12:32:03.756Z,29.00
2019-05-25T12:33:10.066Z,29.40
2019-05-25T12:34:23.887Z,29.50
2019-05-25T12:35:37.127Z,29.50
2019-05-25T12:36:50.986Z,29.50
2019-05-25T12:38:04.202Z,28.90
2019-05-25T12:39:18.024Z,28.40
2019-05-25T12:40:31.607Z,28.40
2019-05-25T12:41:45.442Z,28.20
2019-05-25T12:42:58.690Z,28.20
2019-05-25T12:44:12.503Z,28.20
2019-05-25T12:45:26.318Z,28.00
2019-05-25T12:46:40.162Z,27.50
2019-05-25T12:47:53.935Z,27.50
2019-05-25T12:49:09.238Z,27.40
2019-05-25T12:50:22.478Z,27.60
2019-05-25T12:51:36.271Z,27.80
2019-05-25T12:52:49.547Z,27.60
2019-05-25T12:54:03.406Z,27.80
2019-05-25T12:55:17.177Z,27.90
2019-05-25T12:56:30.992Z,27.90
2019-05-25T12:57:44.939Z,28.20
2019-05-25T12:58:58.968Z,28.10
2019-05-25T13:00:15.953Z,27.90
2019-05-25T13:01:28.515Z,27.90
2019-05-25T13:02:42.002Z,28.10
2019-05-25T13:03:56.134Z,28.20
2019-05-25T13:05:10.012Z,28.00
2019-05-25T13:06:24.083Z,28.20
2019-05-25T13:07:37.330Z,28.40
2019-05-25T13:08:51.136Z,28.10
2019-05-25T13:10:06.563Z,27.70
2019-05-25T13:11:20.598Z,27.80
2019-05-25T13:12:33.838Z,28.00
2019-05-25T13:13:47.400Z,27.80
2019-05-25T13:15:02.044Z,27.70
2019-05-25T13:16:15.892Z,27.00
2019-05-25T13:17:29.234Z,26.80
2019-05-25T13:18:43.107Z,26.60
2019-05-25T13:19:56.338Z,26.40
2019-05-25T13:21:10.210Z,26.20
2019-05-25T13:22:23.472Z,25.70
2019-05-25T13:23:37.299Z,25.70
2019-05-25T13:24:50.782Z,25.30
2019-05-25T13:26:04.630Z,25.00
2019-05-25T13:27:18.057Z,24.90
2019-05-25T13:28:32.063Z,24.60
2019-05-25T13:29:45.355Z,24.60
2019-05-25T13:31:11.281Z,24.30
2019-05-25T13:32:14.144Z,24.40
2019-05-25T13:33:28.177Z,24.30
2019-05-25T13:34:41.435Z,24.40
2019-05-25T13:35:55.431Z,24.30
2019-05-25T13:37:08.684Z,24.30
2019-05-25T13:38:22.507Z,24.00
2019-05-25T13:39:35.772Z,23.90
2019-05-25T13:40:49.590Z,24.00
2019-05-25T13:42:02.822Z,24.00
2019-05-25T13:43:16.635Z,24.00
2019-05-25T13:44:29.876Z,24.00
2019-05-25T13:45:46.119Z,23.90
2019-05-25T13:46:59.741Z,23.70
2019-05-25T13:48:14.618Z,23.70
2019-05-25T13:49:27.857Z,23.60
2019-05-25T13:50:41.762Z,23.60
2019-05-25T13:51:55.003Z,23.40
2019-05-25T13:53:08.816Z,23.40
2019-05-25T13:54:22.034Z,23.40
2019-05-25T13:55:35.910Z,23.30
2019-05-25T13:56:49.150Z,23.20
2019-05-25T13:58:02.974Z,23.10
2019-05-25T13:59:16.197Z,23.00
2019-05-25T14:00:30.015Z,23.00
2019-05-25T14:01:43.258Z,22.90
2019-05-25T14:02:56.818Z,22.70
2019-05-25T14:04:10.983Z,22.80
2019-05-25T14:05:24.798Z,22.70
2019-05-25T14:06:38.044Z,22.60
2019-05-25T14:07:52.056Z,22.60
2019-05-25T14:09:06.910Z,22.50
2019-05-25T14:10:21.193Z,22.40
2019-05-25T14:11:34.499Z,22.30
2019-05-25T14:12:48.330Z,22.30
2019-05-25T14:14:02.203Z,22.30
2019-05-25T14:15:16.050Z,22.10
2019-05-25T14:16:29.339Z,22.10
2019-05-25T14:17:43.374Z,22.10
2019-05-25T14:18:56.610Z,22.10
2019-05-25T14:20:10.506Z,22.10
2019-05-25T14:21:23.806Z,22.00
2019-05-25T14:22:37.821Z,22.00
2019-05-25T14:23:51.531Z,22.00
2019-05-25T14:25:07.143Z,22.00
2019-05-25T14:26:20.390Z,22.00
2019-05-25T14:27:34.275Z,22.00
2019-05-25T14:28:47.526Z,22.00
2019-05-25T14:30:01.342Z,22.00
2019-05-25T14:31:15.853Z,21.90
2019-05-25T14:32:29.732Z,21.90
2019-05-25T14:33:42.994Z,21.90
2019-05-25T14:34:56.817Z,22.00
2019-05-25T14:36:10.043Z,22.00
2019-05-25T14:37:23.871Z,22.00
2019-05-25T14:38:37.097Z,21.90
2019-05-25T14:39:50.911Z,22.00
2019-05-25T14:41:04.226Z,21.90
2019-05-25T14:42:18.138Z,21.90
2019-05-25T14:43:31.374Z,21.90
2019-05-25T14:44:45.234Z,21.90
2019-05-25T14:45:58.479Z,21.90
2019-05-25T14:47:12.290Z,21.90
2019-05-25T14:48:25.531Z,21.90
2019-05-25T14:49:39.356Z,21.90
2019-05-25T14:50:54.051Z,21.90
2019-05-25T14:52:07.895Z,21.90
2019-05-25T14:53:22.826Z,21.90
2019-05-25T14:54:36.890Z,21.90
2019-05-25T14:55:50.117Z,21.90
2019-05-25T14:57:05.071Z,21.90
2019-05-25T14:58:18.327Z,21.80
2019-05-25T14:59:32.221Z,21.70
2019-05-25T15:00:45.454Z,21.80
2019-05-25T15:02:02.747Z,21.80
2019-05-25T15:03:17.951Z,21.90
2019-05-25T15:04:31.806Z,21.80
2019-05-25T15:05:45.918Z,21.80
2019-05-25T15:06:59.769Z,21.90
2019-05-25T15:08:14.214Z,21.90
2019-05-25T15:09:28.042Z,22.00
2019-05-25T15:10:41.274Z,22.00
2019-05-25T15:11:55.086Z,22.00
2019-05-25T15:13:09.335Z,22.00
2019-05-25T15:14:23.267Z,22.00
2019-05-25T15:15:36.501Z,21.90
2019-05-25T15:16:50.395Z,22.00
2019-05-25T15:18:03.744Z,22.10
2019-05-25T15:19:18.441Z,22.10
2019-05-25T15:20:31.878Z,22.20
2019-05-25T15:21:45.849Z,22.10
2019-05-25T15:22:59.334Z,22.10
2019-05-25T15:24:14.401Z,22.20
2019-05-25T15:25:27.691Z,22.10
2019-05-25T15:26:41.495Z,22.00
2019-05-25T15:27:54.734Z,21.70
2019-05-25T15:29:11.290Z,21.40
2019-05-25T15:30:23.531Z,21.40
2019-05-25T15:31:37.344Z,21.10
2019-05-25T15:32:51.853Z,21.20
2019-05-25T15:34:05.662Z,21.00
2019-05-25T15:35:20.437Z,21.00
2019-05-25T15:36:34.655Z,21.00
2019-05-25T15:37:49.031Z,21.00
2019-05-25T15:39:02.861Z,21.00
2019-05-25T15:40:16.171Z,21.00
2019-05-25T15:41:29.999Z,21.00
2019-05-25T15:42:43.329Z,21.00
2019-05-25T15:43:57.147Z,21.00
2019-05-25T15:45:10.594Z,20.90
2019-05-25T15:46:25.130Z,20.80
2019-05-25T15:47:38.644Z,20.80
2019-05-25T15:48:52.467Z,20.80
2019-05-25T15:50:09.625Z,20.80
2019-05-25T15:51:23.439Z,20.80
2019-05-25T15:52:36.666Z,20.80